createdAt,value
2023-05-22T00:03:36.587Z,9.50
2023-05-22T00:07:52.947Z,8.68
2023-05-22T00:12:09.281Z,7.57
2023-05-22T00:16:25.602Z,9.45
2023-05-22T00:20:42.441Z,5.85
2023-05-22T00:24:59.116Z,5.95
2023-05-22T00:29:15.398Z,6.53
2023-05-22T00:33:31.716Z,11.12
2023-05-22T00:37:47.915Z,6.32
2023-05-22T00:42:04.388Z,6.20
2023-05-22T00:46:24.720Z,6.68
2023-05-22T00:50:41.162Z,6.20
2023-05-22T00:54:57.675Z,8.27
2023-05-22T00:59:14.138Z,5.55
2023-05-22T01:03:32.453Z,7.78
2023-05-22T01:07:48.893Z,8.90
2023-05-22T01:12:34.578Z,5.12
2023-05-22T01:17:03.398Z,8.75
2023-05-22T01:21:58.338Z,8.45
2023-05-22T01:26:29.307Z,5.75
2023-05-22T01:31:00.978Z,5.12
2023-05-22T01:35:21.361Z,5.53
2023-05-22T01:39:38.587Z,5.05
2023-05-22T01:43:54.945Z,6.00
2023-05-22T01:48:12.259Z,7.72
2023-05-22T01:53:13.125Z,13.05
2023-05-22T01:57:43.778Z,8.20
2023-05-22T02:02:05.339Z,7.45
2023-05-22T02:06:21.742Z,6.00
2023-05-22T02:10:39.374Z,7.45
2023-05-22T02:14:55.800Z,5.82
2023-05-22T02:19:12.174Z,5.55
2023-05-22T02:23:31.435Z,8.38
2023-05-22T02:27:49.925Z,5.47
2023-05-22T02:32:06.622Z,5.00
2023-05-22T02:36:23.209Z,6.35
2023-05-22T02:40:40.075Z,8.88
2023-05-22T02:44:59.508Z,8.68
2023-05-22T02:49:15.864Z,6.15
2023-05-22T02:53:33.867Z,7.43
2023-05-22T02:57:50.065Z,7.05
2023-05-22T03:02:06.664Z,4.87
2023-05-22T03:06:23.444Z,5.72
2023-05-22T03:10:39.952Z,7.45
2023-05-22T03:14:56.342Z,10.40
2023-05-22T03:19:14.180Z,8.88
2023-05-22T03:23:31.028Z,5.35
2023-05-22T03:27:47.313Z,10.75
2023-05-22T03:32:04.058Z,8.20
2023-05-22T03:36:21.790Z,7.25
2023-05-22T03:40:38.220Z,8.57
2023-05-22T03:44:54.770Z,6.78
2023-05-22T03:49:11.064Z,4.07
2023-05-22T03:53:27.278Z,9.25
2023-05-22T03:57:43.456Z,7.50
2023-05-22T04:02:01.539Z,4.78
2023-05-22T04:06:21.880Z,9.35
2023-05-22T04:10:39.094Z,8.30
2023-05-22T04:14:55.580Z,5.45
2023-05-22T04:19:12.683Z,4.50
2023-05-22T04:23:28.992Z,5.15
2023-05-22T04:27:45.140Z,6.78
2023-05-22T04:32:01.543Z,6.10
2023-05-22T04:36:18.058Z,8.20
2023-05-22T04:40:34.580Z,8.90
2023-05-22T04:44:53.319Z,6.65
2023-05-22T04:49:09.584Z,8.52
2023-05-22T04:53:27.637Z,7.18
2023-05-22T04:57:45.386Z,4.53
2023-05-22T05:02:01.594Z,5.97
2023-05-22T05:06:18.264Z,13.38
2023-05-22T05:10:35.042Z,8.43
2023-05-22T05:14:51.393Z,10.18
2023-05-22T05:19:07.557Z,6.55
2023-05-22T05:23:23.816Z,7.32
2023-05-22T05:27:40.595Z,7.90
2023-05-22T05:31:56.873Z,6.32
2023-05-22T05:36:13.360Z,7.47
2023-05-22T05:40:29.603Z,8.60
2023-05-22T05:44:45.882Z,11.85
2023-05-22T05:49:06.394Z,7.60
2023-05-22T05:53:22.706Z,4.85
2023-05-22T05:57:38.931Z,10.20
2023-05-22T06:01:55.114Z,6.65
2023-05-22T06:06:12.172Z,6.35
2023-05-22T06:10:28.361Z,3.95
2023-05-22T06:14:44.572Z,6.93
2023-05-22T06:19:01.084Z,10.23
2023-05-22T06:23:17.552Z,6.25
2023-05-22T06:27:33.783Z,7.80
2023-05-22T06:31:49.984Z,6.05
2023-05-22T06:36:07.343Z,9.63
2023-05-22T06:40:23.574Z,6.60
2023-05-22T06:44:39.740Z,10.15
2023-05-22T06:48:56.336Z,6.87
2023-05-22T06:53:12.883Z,6.22
2023-05-22T06:57:29.147Z,6.15
2023-05-22T07:01:45.469Z,5.60
2023-05-22T07:06:02.454Z,4.87
2023-05-22T07:10:18.852Z,5.60
2023-05-22T07:14:35.110Z,7.03
2023-05-22T07:18:51.455Z,5.07
2023-05-22T07:23:09.093Z,5.03
2023-05-22T07:27:25.288Z,4.75
2023-05-22T07:31:42.543Z,4.15
2023-05-22T07:35:58.764Z,5.10
2023-05-22T07:40:15.055Z,6.87
2023-05-22T07:44:31.554Z,7.47
2023-05-22T07:48:47.705Z,5.12
2023-05-22T07:53:04.749Z,4.40
2023-05-22T07:57:21.447Z,4.60
2023-05-22T08:01:41.971Z,4.05
2023-05-22T08:05:58.409Z,8.45
2023-05-22T08:10:17.386Z,5.40
2023-05-22T08:14:33.654Z,8.18
2023-05-22T08:18:50.658Z,6.87
2023-05-22T08:23:06.840Z,6.20
2023-05-22T08:27:23.456Z,9.15
2023-05-22T08:31:39.780Z,5.82
2023-05-22T08:35:56.017Z,8.23
2023-05-22T08:40:15.772Z,6.95
2023-05-22T08:44:32.030Z,11.25
2023-05-22T08:48:49.002Z,7.50
2023-05-22T08:53:07.519Z,6.12
2023-05-22T08:57:24.542Z,7.30
2023-05-22T09:01:40.851Z,8.30
2023-05-22T09:05:57.191Z,5.18
2023-05-22T09:10:13.928Z,8.23
2023-05-22T09:14:38.020Z,9.85
2023-05-22T09:18:54.249Z,6.15
2023-05-22T09:23:15.662Z,6.87
2023-05-22T09:27:32.233Z,5.57
2023-05-22T09:31:48.964Z,4.85
2023-05-22T09:36:08.980Z,4.70
2023-05-22T09:40:27.260Z,11.73
2023-05-22T09:44:48.087Z,5.32
2023-05-22T09:49:04.756Z,9.27
2023-05-22T09:53:25.815Z,5.70
2023-05-22T09:57:46.575Z,6.62
2023-05-22T10:02:03.643Z,6.62
2023-05-22T10:06:21.647Z,6.65
2023-05-22T10:10:39.543Z,4.00
2023-05-22T10:14:56.324Z,6.50
2023-05-22T10:19:13.738Z,4.35
2023-05-22T10:23:30.412Z,5.28
2023-05-22T10:27:46.633Z,7.68
2023-05-22T10:32:05.697Z,3.58
2023-05-22T10:36:52.240Z,9.73
2023-05-22T10:41:09.731Z,3.75
2023-05-22T10:45:30.382Z,5.20
2023-05-22T10:49:46.978Z,6.07
2023-05-22T10:54:05.574Z,5.32
2023-05-22T10:58:32.722Z,6.95
2023-05-22T11:02:50.039Z,5.75
2023-05-22T11:07:07.985Z,9.30
2023-05-22T11:11:26.912Z,5.95
2023-05-22T11:15:49.511Z,4.10
2023-05-22T11:24:22.410Z,5.75
2023-05-22T11:28:39.205Z,6.62
2023-05-22T11:32:57.480Z,3.95
2023-05-22T11:37:13.825Z,7.90
2023-05-22T11:41:34.449Z,6.32
2023-05-22T11:45:50.780Z,4.20
2023-05-22T11:50:10.113Z,9.75
2023-05-22T11:54:26.464Z,6.95
2023-05-22T11:58:42.701Z,6.43
2023-05-22T12:02:59.144Z,5.18
2023-05-22T12:07:15.615Z,12.43
2023-05-22T12:11:36.563Z,4.18
2023-05-22T12:15:55.342Z,7.37
2023-05-22T12:20:14.760Z,9.07
2023-05-22T12:24:42.359Z,4.40
2023-05-22T12:28:59.653Z,3.53
2023-05-22T12:33:15.853Z,5.60
2023-05-22T12:41:49.812Z,4.78
2023-05-22T12:46:06.099Z,4.43
2023-05-22T12:50:22.325Z,4.32
2023-05-22T12:54:38.465Z,6.32
2023-05-22T12:58:54.781Z,11.70
2023-05-22T13:03:12.211Z,4.50
2023-05-22T13:07:28.453Z,4.62
2023-05-22T13:11:44.998Z,5.18
2023-05-22T13:16:01.235Z,4.93
2023-05-22T13:20:17.503Z,3.22
2023-05-22T13:24:33.671Z,7.18
2023-05-22T13:28:50.788Z,6.00
2023-05-22T13:33:07.307Z,5.55
2023-05-22T13:37:23.570Z,5.75
2023-05-22T13:41:39.876Z,18.17
2023-05-22T13:45:56.181Z,6.30
2023-05-22T13:50:12.425Z,5.60
2023-05-22T13:54:28.866Z,12.60
2023-05-22T13:58:45.073Z,5.53
2023-05-22T14:03:01.728Z,10.20
2023-05-22T14:07:18.128Z,6.97
2023-05-22T14:11:34.532Z,3.72
2023-05-22T14:15:51.038Z,6.10
2023-05-22T14:20:07.938Z,6.40
2023-05-22T14:24:24.183Z,9.50
2023-05-22T14:28:40.456Z,5.72
2023-05-22T14:32:56.698Z,5.15
2023-05-22T14:37:13.262Z,5.12
2023-05-22T14:41:29.552Z,8.85
2023-05-22T14:45:46.085Z,11.10
2023-05-22T14:50:14.656Z,7.03
2023-05-22T14:54:35.725Z,4.82
2023-05-22T14:58:51.918Z,12.95
2023-05-22T15:03:08.221Z,7.82
2023-05-22T15:07:29.392Z,13.02
2023-05-22T15:11:56.318Z,4.63
2023-05-22T15:16:12.584Z,6.37
2023-05-22T15:20:29.482Z,6.40
2023-05-22T15:24:48.376Z,6.62
2023-05-22T15:29:04.773Z,5.32
2023-05-22T15:33:22.044Z,6.68
2023-05-22T15:37:38.217Z,7.15
2023-05-22T15:42:05.331Z,6.62
2023-05-22T15:46:22.950Z,3.75
2023-05-22T15:50:39.190Z,8.63
2023-05-22T15:54:57.089Z,9.73
2023-05-22T15:59:13.516Z,6.40
2023-05-22T16:03:29.834Z,10.52
2023-05-22T16:07:46.259Z,9.70
2023-05-22T16:12:03.043Z,9.18
2023-05-22T16:16:19.647Z,10.52
2023-05-22T16:20:36.383Z,18.20
2023-05-22T16:24:53.228Z,14.20
2023-05-22T16:29:09.791Z,10.45
2023-05-22T16:33:26.750Z,16.17
2023-05-22T16:37:43.189Z,8.23
2023-05-22T16:42:00.816Z,6.05
2023-05-22T16:46:17.767Z,6.62
2023-05-22T16:50:34.182Z,12.05
2023-05-22T16:54:51.379Z,10.85
2023-05-22T16:59:07.762Z,22.30
2023-05-22T17:03:25.136Z,12.63
2023-05-22T17:07:41.623Z,7.43
2023-05-22T17:11:58.054Z,9.68
2023-05-22T17:16:14.622Z,5.78
2023-05-22T17:20:33.229Z,8.95
2023-05-22T17:24:49.680Z,10.07
2023-05-22T17:29:06.257Z,8.05
2023-05-22T17:33:23.113Z,9.02
2023-05-22T17:37:39.499Z,11.82
2023-05-22T17:41:56.068Z,6.57
2023-05-22T17:46:13.095Z,6.75
2023-05-22T17:50:29.304Z,6.03
2023-05-22T17:54:45.850Z,8.15
2023-05-22T17:59:02.215Z,6.87
2023-05-22T18:03:21.901Z,8.20
2023-05-22T18:07:38.330Z,22.85
2023-05-22T18:11:54.759Z,55.90
2023-05-22T18:16:11.058Z,94.25
2023-05-22T18:20:27.398Z,49.45
2023-05-22T18:24:43.724Z,10.65
2023-05-22T18:28:59.989Z,6.28
2023-05-22T18:33:16.961Z,5.47
2023-05-22T18:37:33.216Z,5.70
2023-05-22T18:41:49.610Z,4.78
2023-05-22T18:46:06.360Z,6.00
2023-05-22T18:50:23.763Z,6.78
2023-05-22T18:54:40.126Z,6.25
2023-05-22T18:58:56.300Z,5.87
2023-05-22T19:03:12.689Z,9.02
2023-05-22T19:07:29.015Z,6.45
2023-05-22T19:11:45.188Z,4.53
2023-05-22T19:16:01.518Z,6.00
2023-05-22T19:20:17.795Z,8.95
2023-05-22T19:24:34.052Z,7.00
2023-05-22T19:28:50.262Z,5.97
2023-05-22T19:33:08.704Z,9.90
2023-05-22T19:37:25.334Z,6.57
2023-05-22T19:41:41.646Z,31.37
2023-05-22T19:45:58.319Z,9.18
2023-05-22T19:50:20.846Z,19.80
2023-05-22T19:54:37.408Z,16.62
2023-05-22T19:58:53.606Z,9.98
2023-05-22T20:03:09.927Z,10.48
2023-05-22T20:07:26.260Z,9.68
2023-05-22T20:11:44.295Z,22.60
2023-05-22T20:16:04.286Z,23.35
2023-05-22T20:20:25.092Z,12.98
2023-05-22T20:24:41.998Z,11.68
2023-05-22T20:28:58.188Z,6.28
2023-05-22T20:33:19.008Z,5.95
2023-05-22T20:37:36.318Z,9.48
2023-05-22T20:41:52.670Z,5.97
2023-05-22T20:46:09.895Z,6.43
2023-05-22T20:50:26.332Z,6.45
2023-05-22T20:54:42.650Z,4.90
2023-05-22T20:58:58.920Z,7.43
2023-05-22T21:03:15.305Z,7.82
2023-05-22T21:07:31.541Z,8.52
2023-05-22T21:11:48.785Z,8.43
2023-05-22T21:16:05.207Z,10.77
2023-05-22T21:20:21.459Z,9.70
2023-05-22T21:24:37.622Z,8.75
2023-05-22T21:28:53.821Z,6.57
2023-05-22T21:33:10.121Z,7.35
2023-05-22T21:37:26.365Z,10.32
2023-05-22T21:41:42.528Z,5.10
2023-05-22T21:45:58.791Z,6.15
2023-05-22T21:50:15.563Z,6.10
2023-05-22T21:54:32.051Z,6.28
2023-05-22T21:58:49.062Z,4.93
2023-05-22T22:12:12.831Z,6.00
2023-05-22T22:21:02.914Z,5.55
2023-05-22T22:25:19.121Z,6.15
2023-05-22T22:29:35.361Z,6.80
2023-05-22T22:33:51.582Z,5.60
2023-05-22T22:38:07.834Z,5.87
2023-05-22T22:42:24.972Z,8.02
2023-05-22T22:46:42.854Z,7.97
2023-05-22T22:50:59.117Z,5.05
2023-05-22T22:55:15.351Z,7.00
2023-05-22T22:59:32.073Z,5.12
2023-05-22T23:03:48.293Z,7.07
2023-05-22T23:08:04.520Z,8.45
2023-05-22T23:12:20.788Z,7.70
2023-05-22T23:16:43.564Z,5.68
2023-05-22T23:20:59.767Z,5.47
2023-05-22T23:25:16.135Z,19.45
2023-05-22T23:29:32.399Z,8.57
2023-05-22T23:33:48.691Z,6.20
2023-05-22T23:38:04.904Z,5.18
2023-05-22T23:42:21.066Z,6.70
2023-05-22T23:46:39.848Z,8.88
2023-05-22T23:50:56.181Z,9.43
2023-05-22T23:55:12.429Z,9.73
2023-05-22T23:59:28.791Z,10.45
